Aérodrome :
LOGIN :

S'inscrire | Disclaimer

   EN    FR    IT 

 










Légende :    VFR   VFR Marginal   IFR   IFR Intensif   IFR Très Intensif
Visi : 
Plafond : 
>= 8 km
>= 3000ft
5 à 8 km
1000 à 3000 ft
1500m à 5 km
500 à 1000 ft
800 à 1500m
200 à 500 ft
< 800m
< 200 ft
Symboles :   Orages  Brouillard  Fortes neiges  Fortes précipitations  Vent > 20 kt
SIGMETs :   Divers  Orages  Givrage  Turbulence  Onde Orograph.  Cendres Volcan.







- Altitude de l'aérodrome : 220 ft
- Code IATA : CWL
- Voir les cartes d'approche


EGFF - Cardiff Rhoose

DERNIER METAR :
  • 202050Z AUTO 05009KT 9999 BKN020 03/02 Q1009

METARs EXPIRÉS :
  • 202020Z AUTO 04005KT 360V070 9999 NCD 04/03 Q1008
  • 201950Z AUTO 02007KT 9999 SCT017 04/03 Q1007
  • 201920Z AUTO 02007KT 9999 BKN015 05/04 Q1006
  • 201850Z AUTO 01007KT 9999 BKN012 BKN018 07/05 Q1005
  • 201820Z AUTO 30008KT 9999 SCT022 BKN027 07/06 Q1004

TAF TAF EGFF
Valide du 20 à 18h jusqu'au 21 à 18h UTC


201702Z 2018/2118 29020G30KT 9999 SCT025
BECMG 2018/2021 VRB03KT
TEMPO 2018/2103 3000 BR BKN006
BECMG 2103/2106 12015KT 5000 -RADZ BKN005
TEMPO 2104/2111 3000 RADZ BKN003
BECMG 2111/2114 27020KT 3000 RADZ BR BKN003
TEMPO 2111/2118 0200 FG BKN001
ATIS : +44 1446 729 319
Pas de NOTAMs connus pour ce terrain.



MET'MAP, la Météo Aéronautique d'un coup d'oeil ! - Copyright ORBIFLY Décembre 2007 - Disclaimer

ORBIFLY MET'MAP TEAM :

Programmation & Développement : Alexandra Zaïnal
Conception & Développement : Baudouin d'Aumeries
Co-Programmation & Développement : Marc-Olivier Méhu
Soutien technique & logistique : Manuel Goepfert

Contact : metmap@orbifly.com




SOURCES & CREDITS :

   NOAA